createdAt,value
2023-03-05T00:02:22.314Z,63.80
2023-03-05T00:04:49.695Z,64.10
2023-03-05T00:07:17.066Z,64.10
2023-03-05T00:09:45.720Z,64.60
2023-03-05T00:12:13.064Z,65.20
2023-03-05T00:14:40.471Z,65.40
2023-03-05T00:17:07.857Z,65.90
2023-03-05T00:19:35.435Z,65.90
2023-03-05T00:22:03.726Z,66.40
2023-03-05T00:24:31.076Z,67.20
2023-03-05T00:26:59.765Z,67.80
2023-03-05T00:29:30.108Z,68.30
2023-03-05T00:31:58.830Z,67.90
2023-03-05T00:34:28.005Z,68.10
2023-03-05T00:36:55.341Z,68.40
2023-03-05T00:39:22.718Z,68.60
2023-03-05T00:41:50.483Z,69.20
2023-03-05T00:44:19.258Z,69.20
2023-03-05T00:46:47.107Z,69.80
2023-03-05T00:49:14.502Z,69.90
2023-03-05T00:51:41.898Z,69.90
2023-03-05T00:54:09.298Z,69.90
2023-03-05T00:56:36.813Z,70.20
2023-03-05T00:59:04.398Z,70.50
2023-03-05T01:01:33.080Z,70.50
2023-03-05T01:04:01.216Z,70.60
2023-03-05T01:06:29.529Z,70.10
2023-03-05T01:08:56.938Z,70.10
2023-03-05T01:11:24.475Z,70.10
2023-03-05T01:13:51.832Z,69.90
2023-03-05T01:16:19.217Z,69.60
2023-03-05T01:18:47.901Z,69.00
2023-03-05T01:21:15.314Z,69.00
2023-03-05T01:23:42.832Z,69.10
2023-03-05T01:26:10.206Z,68.70
2023-03-05T01:28:39.941Z,68.60
2023-03-05T01:31:09.074Z,67.90
2023-03-05T01:33:36.577Z,67.80
2023-03-05T01:36:12.421Z,67.30
2023-03-05T01:38:39.779Z,66.90
2023-03-05T01:41:07.298Z,66.00
2023-03-05T01:43:34.640Z,65.50
2023-03-05T01:46:34.873Z,65.70
2023-03-05T01:49:07.681Z,65.10
2023-03-05T01:51:41.543Z,64.90
2023-03-05T01:54:11.731Z,64.70
2023-03-05T01:56:40.511Z,64.20
2023-03-05T01:59:08.675Z,63.70
2023-03-05T02:01:40.627Z,63.80
2023-03-05T02:04:09.536Z,63.00
2023-03-05T02:06:40.079Z,62.70
2023-03-05T02:09:07.572Z,62.20
2023-03-05T02:11:35.257Z,62.10
2023-03-05T02:14:03.524Z,62.30
2023-03-05T02:16:36.730Z,61.80
2023-03-05T02:19:05.104Z,61.70
2023-03-05T02:21:40.152Z,60.60
2023-03-05T02:24:10.820Z,61.00
2023-03-05T02:26:38.345Z,60.10
2023-03-05T02:29:09.106Z,60.30
2023-03-05T02:31:38.922Z,60.20
2023-03-05T02:34:06.510Z,59.50
2023-03-05T02:36:34.833Z,59.40
2023-03-05T02:39:03.625Z,59.70
2023-03-05T02:41:30.997Z,59.60
2023-03-05T02:43:59.246Z,59.50
2023-03-05T02:46:26.856Z,59.60
2023-03-05T02:48:54.228Z,59.20
2023-03-05T02:51:21.544Z,59.30
2023-03-05T02:53:49.064Z,59.60
2023-03-05T02:56:18.486Z,59.50
2023-03-05T02:58:45.869Z,59.50
2023-03-05T03:01:13.412Z,59.00
2023-03-05T03:03:41.184Z,59.10
2023-03-05T03:06:10.042Z,59.60
2023-03-05T03:08:37.485Z,59.60
2023-03-05T03:11:06.935Z,60.10
2023-03-05T03:13:35.663Z,59.70
2023-03-05T03:16:04.517Z,59.60
2023-03-05T03:18:32.038Z,59.40
2023-03-05T03:20:59.614Z,59.90
2023-03-05T03:23:27.188Z,59.80
2023-03-05T03:25:54.539Z,59.50
2023-03-05T03:28:21.885Z,60.00
2023-03-05T03:30:50.956Z,60.10
2023-03-05T03:33:18.498Z,59.80
2023-03-05T03:35:46.463Z,59.80
2023-03-05T03:38:14.024Z,59.60
2023-03-05T03:40:41.769Z,59.90
2023-03-05T03:43:09.406Z,59.50
2023-03-05T03:45:41.575Z,59.80
2023-03-05T03:48:10.466Z,60.00
2023-03-05T03:50:39.177Z,59.40
2023-03-05T03:53:06.878Z,60.00
2023-03-05T03:55:34.627Z,59.90
2023-03-05T03:58:02.008Z,60.30
2023-03-05T04:00:29.487Z,60.30
2023-03-05T04:02:56.887Z,60.70
2023-03-05T04:05:25.667Z,60.90
2023-03-05T04:07:53.242Z,61.20
2023-03-05T04:10:20.615Z,61.50
2023-03-05T04:12:48.036Z,61.40
2023-03-05T04:15:15.380Z,61.30
2023-03-05T04:17:42.750Z,61.80
2023-03-05T04:20:11.471Z,62.20
2023-03-05T04:22:40.192Z,62.10
2023-03-05T04:25:08.426Z,62.00
2023-03-05T04:27:37.528Z,62.10
2023-03-05T04:30:06.060Z,61.90
2023-03-05T04:32:33.587Z,62.40
2023-03-05T04:35:00.999Z,62.60
2023-03-05T04:37:28.523Z,63.00
2023-03-05T04:39:57.243Z,63.10
2023-03-05T04:42:24.887Z,63.20
2023-03-05T04:44:52.301Z,63.20
2023-03-05T04:47:19.782Z,63.60
2023-03-05T04:49:47.240Z,63.70
2023-03-05T04:52:15.379Z,63.70
2023-03-05T04:54:44.876Z,64.20
2023-03-05T04:57:13.650Z,64.50
2023-03-05T04:59:40.981Z,64.50
2023-03-05T05:02:08.341Z,64.50
2023-03-05T05:04:36.136Z,64.50
2023-03-05T05:07:04.777Z,64.70
2023-03-05T05:09:32.123Z,65.00
2023-03-05T05:11:59.484Z,65.00
2023-03-05T05:14:28.111Z,65.20
2023-03-05T05:16:55.477Z,65.50
2023-03-05T05:19:23.020Z,65.80
2023-03-05T05:21:50.364Z,66.00
2023-03-05T05:24:17.686Z,65.70
2023-03-05T05:26:45.008Z,65.70
2023-03-05T05:29:12.327Z,65.90
2023-03-05T05:31:41.122Z,66.00
2023-03-05T05:34:08.478Z,66.10
2023-03-05T05:36:35.826Z,66.50
2023-03-05T05:39:03.329Z,66.40
2023-03-05T05:41:30.745Z,66.80
2023-03-05T05:43:58.155Z,67.00
2023-03-05T05:46:26.359Z,67.20
2023-03-05T05:48:55.100Z,67.20
2023-03-05T05:51:23.574Z,67.60
2023-03-05T05:53:51.122Z,67.70
2023-03-05T05:56:19.016Z,67.90
2023-03-05T05:58:48.230Z,67.90
2023-03-05T06:01:18.152Z,67.80
2023-03-05T06:03:45.717Z,67.80
2023-03-05T06:06:17.019Z,67.80
2023-03-05T06:08:44.685Z,68.20
2023-03-05T06:11:12.728Z,68.30
2023-03-05T06:13:40.049Z,68.40
2023-03-05T06:16:10.774Z,68.20
2023-03-05T06:18:38.112Z,68.20
2023-03-05T06:21:07.115Z,68.00
2023-03-05T06:23:35.878Z,68.00
2023-03-05T06:26:05.719Z,67.80
2023-03-05T06:28:33.386Z,68.00
2023-03-05T06:31:01.807Z,68.00
2023-03-05T06:33:29.770Z,67.90
2023-03-05T06:35:57.490Z,67.80
2023-03-05T06:38:25.324Z,67.90
2023-03-05T06:40:53.954Z,67.90
2023-03-05T06:43:21.476Z,68.00
2023-03-05T06:45:48.809Z,68.10
2023-03-05T06:48:16.116Z,67.90
2023-03-05T06:50:43.569Z,67.90
2023-03-05T06:53:10.920Z,67.60
2023-03-05T06:55:39.802Z,67.50
2023-03-05T06:58:08.665Z,67.40
2023-03-05T07:00:36.001Z,67.40
2023-03-05T07:03:03.511Z,67.20
2023-03-05T07:05:32.567Z,67.10
2023-03-05T07:08:00.702Z,66.80
2023-03-05T07:10:28.068Z,67.10
2023-03-05T07:12:55.506Z,67.00
2023-03-05T07:15:24.197Z,66.70
2023-03-05T07:17:52.041Z,66.70
2023-03-05T07:20:19.493Z,66.30
2023-03-05T07:22:46.791Z,66.10
2023-03-05T07:25:14.177Z,65.80
2023-03-05T07:27:41.531Z,65.60
2023-03-05T07:30:10.371Z,65.20
2023-03-05T07:32:39.096Z,65.60
2023-03-05T07:35:07.626Z,65.00
2023-03-05T07:37:35.409Z,64.80
2023-03-05T07:40:04.459Z,65.00
2023-03-05T07:42:32.037Z,65.00
2023-03-05T07:45:11.396Z,64.70
2023-03-05T07:47:39.959Z,64.40
2023-03-05T07:50:08.368Z,64.00
2023-03-05T07:52:35.581Z,63.70
2023-03-05T07:55:02.855Z,66.00
2023-03-05T07:57:30.108Z,66.10
2023-03-05T07:59:57.514Z,66.30
2023-03-05T08:02:24.788Z,66.60
2023-03-05T08:04:53.509Z,65.20
2023-03-05T08:07:20.744Z,64.20
2023-03-05T08:09:47.980Z,62.70
2023-03-05T08:12:15.217Z,63.30
2023-03-05T08:14:42.525Z,62.20
2023-03-05T08:17:09.793Z,62.40
2023-03-05T08:19:37.022Z,62.30
2023-03-05T08:22:05.730Z,62.20
2023-03-05T08:24:33.036Z,62.20
2023-03-05T08:27:00.640Z,61.00
2023-03-05T08:29:27.946Z,61.50
2023-03-05T08:31:55.748Z,61.20
2023-03-05T08:34:23.067Z,60.80
2023-03-05T08:36:50.338Z,60.10
2023-03-05T08:39:19.058Z,60.20
2023-03-05T08:41:46.370Z,60.20
2023-03-05T08:44:13.604Z,57.80
2023-03-05T08:46:41.339Z,57.60
2023-03-05T08:49:09.776Z,57.60
2023-03-05T08:51:37.083Z,57.10
2023-03-05T08:54:06.977Z,56.30
2023-03-05T08:56:35.684Z,55.90
2023-03-05T08:59:03.698Z,55.10
2023-03-05T09:01:32.251Z,55.30
2023-03-05T09:04:00.568Z,54.20
2023-03-05T09:06:27.985Z,53.70
2023-03-05T09:08:55.481Z,54.40
2023-03-05T09:11:23.139Z,53.10
2023-03-05T09:13:51.660Z,54.00
2023-03-05T09:16:19.505Z,53.80
2023-03-05T09:18:46.876Z,53.60
2023-03-05T09:21:16.696Z,53.10
2023-03-05T09:23:45.144Z,53.50
2023-03-05T09:26:13.306Z,54.60
2023-03-05T09:28:41.332Z,54.50
2023-03-05T09:31:10.449Z,53.40
2023-03-05T09:33:38.815Z,53.90
2023-03-05T09:36:17.115Z,51.30
2023-03-05T09:38:44.377Z,51.80
2023-03-05T09:41:17.725Z,51.30
2023-03-05T09:43:53.686Z,51.60
2023-03-05T09:46:32.844Z,52.30
2023-03-05T09:49:07.380Z,52.30
2023-03-05T09:51:39.286Z,52.40
2023-03-05T09:54:12.483Z,51.70
2023-03-05T09:56:42.498Z,52.80
2023-03-05T09:59:20.382Z,53.20
2023-03-05T10:01:50.331Z,52.80
2023-03-05T10:04:24.028Z,52.60
2023-03-05T10:06:58.336Z,53.20
2023-03-05T10:09:43.993Z,53.20
2023-03-05T10:12:18.566Z,52.70
2023-03-05T10:14:45.825Z,52.00
2023-03-05T10:17:49.472Z,52.60
2023-03-05T10:20:38.516Z,53.10
2023-03-05T10:23:21.196Z,52.80
2023-03-05T10:25:56.842Z,52.40
2023-03-05T10:28:33.745Z,53.10
2023-03-05T10:31:18.241Z,52.90
2023-03-05T10:33:57.119Z,53.60
2023-03-05T10:36:41.514Z,52.90
2023-03-05T10:39:34.926Z,52.80
2023-03-05T10:42:11.744Z,52.20
2023-03-05T10:44:44.159Z,52.90
2023-03-05T10:47:21.513Z,53.70
2023-03-05T10:49:51.428Z,55.60
2023-03-05T10:52:25.178Z,56.70
2023-03-05T10:54:52.480Z,57.60
2023-03-05T10:57:22.714Z,57.80
2023-03-05T10:59:52.153Z,57.70
2023-03-05T11:02:21.956Z,57.70
2023-03-05T11:04:50.625Z,57.70
2023-03-05T11:07:37.133Z,57.80
2023-03-05T11:10:16.535Z,56.00
2023-03-05T11:12:45.067Z,57.00
2023-03-05T11:15:28.406Z,57.00
2023-03-05T11:18:21.027Z,56.80
2023-03-05T11:20:48.542Z,56.90
2023-03-05T11:23:18.552Z,57.20
2023-03-05T11:25:57.515Z,57.40
2023-03-05T11:28:33.215Z,57.60
2023-03-05T11:31:22.279Z,58.10
2023-03-05T11:33:59.034Z,58.40
2023-03-05T11:36:29.136Z,58.30
2023-03-05T11:39:08.314Z,57.80
2023-03-05T11:41:39.414Z,57.30
2023-03-05T11:44:13.773Z,57.00
2023-03-05T11:46:44.551Z,57.20
2023-03-05T11:49:16.654Z,56.50
2023-03-05T11:51:47.887Z,56.30
2023-03-05T11:54:22.808Z,56.00
2023-03-05T11:56:52.666Z,56.30
2023-03-05T11:59:23.552Z,56.50
2023-03-05T12:01:54.159Z,55.50
2023-03-05T12:04:22.205Z,55.60
2023-03-05T12:06:51.857Z,56.00
2023-03-05T12:09:25.810Z,56.00
2023-03-05T12:12:00.768Z,55.60
2023-03-05T12:14:35.067Z,55.40
2023-03-05T12:17:10.976Z,55.80
2023-03-05T12:19:48.427Z,55.50
2023-03-05T12:22:19.204Z,56.00
2023-03-05T12:24:47.888Z,56.10
2023-03-05T12:27:17.281Z,56.00
2023-03-05T12:29:49.652Z,55.90
2023-03-05T12:32:59.766Z,56.10
2023-03-05T12:35:35.875Z,55.60
2023-03-05T12:38:26.828Z,54.30
2023-03-05T12:41:43.509Z,52.90
2023-03-05T12:44:21.276Z,51.80
2023-03-05T12:47:17.765Z,51.30
2023-03-05T12:49:46.777Z,51.20
2023-03-05T12:52:25.089Z,50.30
2023-03-05T12:55:15.468Z,50.80
2023-03-05T12:57:45.779Z,50.50
2023-03-05T13:00:21.507Z,50.50
2023-03-05T13:02:55.763Z,51.70
2023-03-05T13:05:26.143Z,50.90
2023-03-05T13:07:53.518Z,50.30
2023-03-05T13:10:23.995Z,49.90
2023-03-05T13:12:54.606Z,50.20
2023-03-05T13:15:26.074Z,49.90
2023-03-05T13:17:57.188Z,50.30
2023-03-05T13:20:34.181Z,51.20
2023-03-05T13:23:13.037Z,51.10
2023-03-05T13:25:40.278Z,50.00
2023-03-05T13:28:12.486Z,50.80
2023-03-05T13:30:44.171Z,51.50
2023-03-05T13:33:18.667Z,51.30
2023-03-05T13:35:47.216Z,51.80
2023-03-05T13:38:24.458Z,51.40
2023-03-05T13:41:18.092Z,52.00
2023-03-05T13:43:48.740Z,51.70
2023-03-05T13:46:24.311Z,51.20
2023-03-05T13:48:51.625Z,52.10
2023-03-05T13:51:19.087Z,51.20
2023-03-05T13:53:46.971Z,50.60
2023-03-05T13:56:16.904Z,50.00
2023-03-05T13:58:49.327Z,51.00
2023-03-05T14:01:25.249Z,50.00
2023-03-05T14:03:53.989Z,50.40
2023-03-05T14:06:23.826Z,50.80
2023-03-05T14:08:52.102Z,50.70
2023-03-05T14:11:20.293Z,50.50
2023-03-05T14:13:49.568Z,50.40
2023-03-05T14:16:25.842Z,51.40
2023-03-05T14:18:54.622Z,51.60
2023-03-05T14:21:22.128Z,51.80
2023-03-05T14:23:52.820Z,52.30
2023-03-05T14:26:24.089Z,52.70
2023-03-05T14:28:54.454Z,52.80
2023-03-05T14:31:24.119Z,53.10
2023-03-05T14:33:52.453Z,52.30
2023-03-05T14:36:29.006Z,53.00
2023-03-05T14:38:56.938Z,52.40
2023-03-05T14:41:35.334Z,52.40
2023-03-05T14:44:11.461Z,52.50
2023-03-05T14:46:38.764Z,53.10
2023-03-05T14:49:06.082Z,52.20
2023-03-05T14:51:37.711Z,51.80
2023-03-05T14:54:05.163Z,51.90
2023-03-05T14:56:33.549Z,52.70
2023-03-05T14:59:00.720Z,52.50
2023-03-05T15:01:29.383Z,51.90
2023-03-05T15:03:56.659Z,51.90
2023-03-05T15:06:32.772Z,52.30
2023-03-05T15:09:00.429Z,52.20
2023-03-05T15:11:27.664Z,51.70
2023-03-05T15:13:54.845Z,52.40
2023-03-05T15:16:22.386Z,52.00
2023-03-05T15:18:50.986Z,51.80
2023-03-05T15:21:18.265Z,52.50
2023-03-05T15:23:45.462Z,52.60
2023-03-05T15:26:15.081Z,52.70
2023-03-05T15:28:43.172Z,52.50
2023-03-05T15:31:11.371Z,52.80
2023-03-05T15:33:39.016Z,53.10
2023-03-05T15:36:09.740Z,52.90
2023-03-05T15:38:38.920Z,53.00
2023-03-05T15:41:06.491Z,53.00
2023-03-05T15:43:33.652Z,53.40
2023-03-05T15:46:01.124Z,53.70
2023-03-05T15:48:29.238Z,53.70
2023-03-05T15:50:56.441Z,53.70
2023-03-05T15:53:24.933Z,53.70
2023-03-05T15:55:52.151Z,53.90
2023-03-05T15:58:19.425Z,53.70
2023-03-05T16:00:47.465Z,54.00
2023-03-05T16:03:14.914Z,53.90
2023-03-05T16:05:42.744Z,54.00
2023-03-05T16:08:10.108Z,54.40
2023-03-05T16:10:40.913Z,54.10
2023-03-05T16:13:11.388Z,54.40
2023-03-05T16:15:41.002Z,54.30
2023-03-05T16:18:12.099Z,54.10
2023-03-05T16:20:39.688Z,54.60
2023-03-05T16:23:07.052Z,54.70
2023-03-05T16:25:34.307Z,54.40
2023-03-05T16:28:02.961Z,55.10
2023-03-05T16:30:30.352Z,54.90
2023-03-05T16:32:57.677Z,54.90
2023-03-05T16:35:25.235Z,54.70
2023-03-05T16:37:52.490Z,54.90
2023-03-05T16:40:19.826Z,55.00
2023-03-05T16:42:47.240Z,55.10
2023-03-05T16:45:15.786Z,55.30
2023-03-05T16:47:43.059Z,55.00
2023-03-05T16:50:11.905Z,55.10
2023-03-05T16:52:39.297Z,55.30
2023-03-05T16:55:07.271Z,55.40
2023-03-05T16:57:34.529Z,55.20
2023-03-05T17:00:04.029Z,55.90
2023-03-05T17:02:32.698Z,55.90
2023-03-05T17:05:00.031Z,55.80
2023-03-05T17:07:27.566Z,55.90
2023-03-05T17:09:54.862Z,56.00
2023-03-05T17:12:22.859Z,56.00
2023-03-05T17:14:50.092Z,56.20
2023-03-05T17:17:17.485Z,56.40
2023-03-05T17:19:46.451Z,56.60
2023-03-05T17:22:16.034Z,56.60
2023-03-05T17:24:43.267Z,56.60
2023-03-05T17:27:10.532Z,56.90
2023-03-05T17:29:37.747Z,57.10
2023-03-05T17:32:05.887Z,57.20
2023-03-05T17:34:36.321Z,57.30
2023-03-05T17:37:05.751Z,57.50
2023-03-05T17:39:33.547Z,57.50
2023-03-05T17:42:01.092Z,57.50
2023-03-05T17:44:28.328Z,57.60
2023-03-05T17:46:56.554Z,57.90
2023-03-05T17:49:23.885Z,57.80
2023-03-05T17:51:54.043Z,57.80
2023-03-05T17:54:22.603Z,57.90
2023-03-05T17:56:54.016Z,58.10
2023-03-05T17:59:21.375Z,58.30
2023-03-05T18:01:48.604Z,58.10
2023-03-05T18:04:17.118Z,58.00
2023-03-05T18:06:44.558Z,58.00
2023-03-05T18:09:12.061Z,58.10
2023-03-05T18:11:40.897Z,58.10
2023-03-05T18:14:08.227Z,58.30
2023-03-05T18:16:35.558Z,58.40
2023-03-05T18:19:02.871Z,58.70
2023-03-05T18:21:30.076Z,58.90
2023-03-05T18:23:57.243Z,59.00
2023-03-05T18:26:24.442Z,59.10
2023-03-05T18:28:53.239Z,59.00
2023-03-05T18:31:20.475Z,59.20
2023-03-05T18:33:47.723Z,59.20
2023-03-05T18:36:15.068Z,59.30
2023-03-05T18:38:42.557Z,59.30
2023-03-05T18:41:17.812Z,59.20
2023-03-05T18:43:45.034Z,59.20
2023-03-05T18:46:13.601Z,59.00
2023-03-05T18:48:40.860Z,58.90
2023-03-05T18:51:13.969Z,58.90
2023-03-05T18:53:41.345Z,58.90
2023-03-05T18:56:09.357Z,58.90
2023-03-05T18:58:36.615Z,59.00
2023-03-05T19:01:04.625Z,58.90
2023-03-05T19:03:33.228Z,58.90
2023-03-05T19:06:00.449Z,58.70
2023-03-05T19:08:27.970Z,58.70
2023-03-05T19:10:55.228Z,58.90
2023-03-05T19:13:35.365Z,59.20
2023-03-05T19:16:07.789Z,59.40
2023-03-05T19:18:43.020Z,59.10
2023-03-05T19:21:10.446Z,59.00
2023-03-05T19:23:37.749Z,59.10
2023-03-05T19:26:05.298Z,59.00
2023-03-05T19:28:32.565Z,59.20
2023-03-05T19:30:59.795Z,59.20
2023-03-05T19:33:27.061Z,59.60
2023-03-05T19:35:55.600Z,59.70
2023-03-05T19:38:22.834Z,59.90
2023-03-05T19:40:50.012Z,60.30
2023-03-05T19:43:17.617Z,60.90
2023-03-05T19:45:44.882Z,60.80
2023-03-05T19:48:12.105Z,60.90
2023-03-05T19:50:40.308Z,60.80
2023-03-05T19:53:08.927Z,61.10
2023-03-05T19:55:39.477Z,61.20
2023-03-05T19:58:06.645Z,61.30
2023-03-05T20:00:33.825Z,61.30
2023-03-05T20:03:01.025Z,61.50
2023-03-05T20:05:28.316Z,61.50
2023-03-05T20:07:55.558Z,61.80
2023-03-05T20:10:24.266Z,62.10
2023-03-05T20:12:51.581Z,62.60
2023-03-05T20:15:23.291Z,63.00
2023-03-05T20:17:52.875Z,63.10
2023-03-05T20:20:20.272Z,62.90
2023-03-05T20:22:47.525Z,63.10
2023-03-05T20:25:17.809Z,62.90
2023-03-05T20:27:46.536Z,63.60
2023-03-05T20:30:17.472Z,64.00
2023-03-05T20:32:44.794Z,64.70
2023-03-05T20:35:15.860Z,64.50
2023-03-05T20:37:49.999Z,64.50
2023-03-05T20:40:17.921Z,65.00
2023-03-05T20:42:46.421Z,65.00
2023-03-05T20:45:13.623Z,65.20
2023-03-05T20:47:46.142Z,65.50
2023-03-05T20:50:14.865Z,65.20
2023-03-05T20:52:42.145Z,65.50
2023-03-05T20:55:11.083Z,65.10
2023-03-05T20:57:39.101Z,64.90
2023-03-05T21:00:09.278Z,65.20
2023-03-05T21:02:36.567Z,64.90
2023-03-05T21:05:04.172Z,65.30
2023-03-05T21:07:31.404Z,65.90
2023-03-05T21:09:58.590Z,66.00
2023-03-05T21:12:25.835Z,65.90
2023-03-05T21:14:53.075Z,66.10
2023-03-05T21:17:21.610Z,66.00
2023-03-05T21:19:48.801Z,66.00
2023-03-05T21:22:16.080Z,66.90
2023-03-05T21:24:55.534Z,67.30
2023-03-05T21:27:22.757Z,67.40
2023-03-05T21:29:50.273Z,67.40
2023-03-05T21:32:17.526Z,67.60
2023-03-05T21:34:46.081Z,67.80
2023-03-05T21:37:13.305Z,68.10
2023-03-05T21:39:40.528Z,67.80
2023-03-05T21:42:09.422Z,68.30
2023-03-05T21:44:37.314Z,68.80
2023-03-05T21:47:04.685Z,68.60
2023-03-05T21:49:31.945Z,68.50
2023-03-05T21:52:09.119Z,68.40
2023-03-05T21:54:36.918Z,68.00
2023-03-05T21:57:05.531Z,68.00
2023-03-05T21:59:32.737Z,68.00
2023-03-05T22:01:59.991Z,68.20
2023-03-05T22:04:27.283Z,68.40
2023-03-05T22:06:54.474Z,68.80
2023-03-05T22:09:22.987Z,69.50
2023-03-05T22:11:50.185Z,69.60
2023-03-05T22:14:18.100Z,69.10
2023-03-05T22:16:45.588Z,68.70
2023-03-05T22:19:12.967Z,68.90
2023-03-05T22:21:40.169Z,69.00
2023-03-05T22:24:07.858Z,68.90
2023-03-05T22:26:38.705Z,69.60
2023-03-05T22:29:08.262Z,69.30
2023-03-05T22:31:36.445Z,69.00
2023-03-05T22:34:03.747Z,68.70
2023-03-05T22:36:31.248Z,68.90
2023-03-05T22:38:58.426Z,69.30
2023-03-05T22:41:25.639Z,69.00
2023-03-05T22:43:54.136Z,69.40
2023-03-05T22:46:23.155Z,69.40
2023-03-05T22:48:51.211Z,70.10
2023-03-05T22:51:19.395Z,70.40
2023-03-05T22:53:46.988Z,70.50
2023-03-05T22:56:15.959Z,70.40
2023-03-05T22:58:43.505Z,70.20
2023-03-05T23:01:13.273Z,70.20
2023-03-05T23:03:40.964Z,70.20
2023-03-05T23:06:09.250Z,69.90
2023-03-05T23:08:36.757Z,70.20
2023-03-05T23:11:09.409Z,70.50
2023-03-05T23:13:37.540Z,70.20
2023-03-05T23:16:05.534Z,70.20
2023-03-05T23:18:34.067Z,70.40
2023-03-05T23:21:01.249Z,70.30
2023-03-05T23:23:28.540Z,70.10
2023-03-05T23:25:55.762Z,70.30
2023-03-05T23:28:23.054Z,70.30
2023-03-05T23:30:50.340Z,70.50
2023-03-05T23:33:19.030Z,70.30
2023-03-05T23:35:52.395Z,70.50
2023-03-05T23:38:20.015Z,70.40
2023-03-05T23:40:49.079Z,70.30
2023-03-05T23:43:17.701Z,70.20
2023-03-05T23:45:47.925Z,70.50
2023-03-05T23:48:15.940Z,70.20
2023-03-05T23:50:45.588Z,70.40
2023-03-05T23:53:17.060Z,70.30
2023-03-05T23:55:45.440Z,70.10
2023-03-05T23:58:13.975Z,69.90
